Time;durP1;ratioP1;P1;durP2;ratioP2;P2;SDS_P1;SDS_P2;PMS_P1;PMS_P2;Temp;Humidity;BMP_temperature;BMP_pressure;BME280_temperature;BME280_humidity;BME280_pressure;Samples;Min_cycle;Max_cycle;Signal;HPM_P1;HPM_P2
2022/05/17 00:01:59;;;;;;;77.10;30.25;;;;;;;;;;5010584;28;21308;-68
2022/05/17 00:04:24;;;;;;;78.35;29.60;;;;;;;;;;5013753;28;20179;-66
2022/05/17 00:06:50;;;;;;;78.20;28.63;;;;;;;;;;5011152;28;20538;-66
2022/05/17 00:09:17;;;;;;;91.45;30.40;;;;;;;;;;5009773;28;20142;-66
2022/05/17 00:11:45;;;;;;;77.18;28.10;;;;;;;;;;5009704;28;20109;-66
2022/05/17 00:14:12;;;;;;;71.60;26.98;;;;;;;;;;5011681;28;20037;-66
2022/05/17 00:16:37;;;;;;;83.18;28.60;;;;;;;;;;5012811;28;20116;-66
2022/05/17 00:19:03;;;;;;;89.38;29.25;;;;;;;;;;5002100;28;20133;-66
2022/05/17 00:21:28;;;;;;;88.00;29.02;;;;;;;;;;5012004;28;20061;-66
2022/05/17 00:23:53;;;;;;;68.38;26.73;;;;;;;;;;5010522;28;20470;-66
2022/05/17 00:26:19;;;;;;;67.85;25.73;;;;;;;;;;5012469;28;20037;-66
2022/05/17 00:28:44;;;;;;;82.00;28.40;;;;;;;;;;5008794;28;20030;-67
2022/05/17 00:31:09;;;;;;;69.60;26.85;;;;;;;;;;5012894;28;20068;-67
2022/05/17 00:33:35;;;;;;;70.78;26.23;;;;;;;;;;5009505;28;20026;-67
2022/05/17 00:36:01;;;;;;;56.22;25.02;;;;;;;;;;5009850;28;20339;-67
2022/05/17 00:38:26;;;;;;;66.85;25.73;;;;;;;;;;5010710;28;20061;-67
2022/05/17 00:40:51;;;;;;;60.05;24.80;;;;;;;;;;5013190;28;20371;-67
2022/05/17 00:46:17;;;;;;;58.03;24.13;;;;;;;;;;5012274;28;20125;-68
2022/05/17 00:48:42;;;;;;;63.95;24.50;;;;;;;;;;5008552;28;20038;-68
2022/05/17 00:51:08;;;;;;;72.85;25.52;;;;;;;;;;5012965;28;20385;-67
2022/05/17 00:53:34;;;;;;;73.57;27.50;;;;;;;;;;5009693;28;20030;-67
2022/05/17 00:56:01;;;;;;;89.95;29.55;;;;;;;;;;5012194;28;20045;-67
2022/05/17 00:58:27;;;;;;;82.07;29.13;;;;;;;;;;5010220;28;20445;-68
2022/05/17 01:01:02;;;;;;;76.50;27.50;;;;;;;;;;5011939;28;20034;-68
2022/05/17 01:03:30;;;;;;;60.95;24.30;;;;;;;;;;5010537;28;20040;-68
2022/05/17 01:05:55;;;;;;;65.65;26.38;;;;;;;;;;5011911;28;20030;-67
2022/05/17 01:08:22;;;;;;;78.38;28.70;;;;;;;;;;5009177;28;20041;-67
2022/05/17 01:10:47;;;;;;;72.60;26.67;;;;;;;;;;5011801;28;20470;-67
2022/05/17 01:15:57;;;;;;;110.10;33.38;;;;;;;;;;5010732;28;20053;-68
2022/05/17 01:18:23;;;;;;;96.65;29.55;;;;;;;;;;5009076;28;20030;-68
2022/05/17 01:20:48;;;;;;;69.40;27.83;;;;;;;;;;5011656;28;20087;-68
2022/05/17 01:23:14;;;;;;;84.00;29.08;;;;;;;;;;5007842;28;20037;-67
2022/05/17 01:25:40;;;;;;;78.15;27.42;;;;;;;;;;4990534;28;20383;-67
2022/05/17 01:28:20;;;;;;;82.00;28.27;;;;;;;;;;4997898;28;20042;-68
2022/05/17 01:30:46;;;;;;;69.50;26.25;;;;;;;;;;5011669;28;20033;-68
2022/05/17 01:33:16;;;;;;;76.30;27.92;;;;;;;;;;5009637;28;20025;-68
2022/05/17 01:35:41;;;;;;;65.57;26.92;;;;;;;;;;5009182;28;20041;-68
2022/05/17 01:38:06;;;;;;;67.78;25.85;;;;;;;;;;5010183;28;20474;-69
2022/05/17 01:40:32;;;;;;;73.85;27.70;;;;;;;;;;5012288;28;20164;-69
2022/05/17 01:42:57;;;;;;;70.80;27.70;;;;;;;;;;5007305;28;20049;-68
2022/05/17 01:45:22;;;;;;;70.53;26.00;;;;;;;;;;5003943;28;20641;-67
2022/05/17 01:47:48;;;;;;;75.07;26.60;;;;;;;;;;5003917;28;20383;-68
2022/05/17 01:50:13;;;;;;;63.88;25.45;;;;;;;;;;5009409;28;20034;-68
2022/05/17 01:52:38;;;;;;;64.10;25.15;;;;;;;;;;5009200;28;20394;-67
2022/05/17 01:55:04;;;;;;;58.75;24.83;;;;;;;;;;5009977;28;20542;-68
2022/05/17 01:57:29;;;;;;;58.03;24.23;;;;;;;;;;5006407;28;20041;-68
2022/05/17 01:59:54;;;;;;;60.30;24.23;;;;;;;;;;5009391;28;20114;-67
2022/05/17 02:02:20;;;;;;;54.65;23.60;;;;;;;;;;5012018;28;20065;-68
2022/05/17 02:04:45;;;;;;;57.58;24.10;;;;;;;;;;5010884;28;20026;-67
2022/05/17 02:07:10;;;;;;;51.05;23.23;;;;;;;;;;5004257;28;20030;-68
2022/05/17 02:09:35;;;;;;;54.55;22.92;;;;;;;;;;5011490;28;20455;-67
2022/05/17 02:12:01;;;;;;;64.28;25.02;;;;;;;;;;5007868;28;20030;-68
2022/05/17 02:14:26;;;;;;;58.65;23.40;;;;;;;;;;5012124;28;20038;-68
2022/05/17 02:16:51;;;;;;;59.22;23.27;;;;;;;;;;5009514;28;20042;-68
2022/05/17 02:19:19;;;;;;;61.90;23.90;;;;;;;;;;5009192;28;20513;-68
2022/05/17 02:21:45;;;;;;;56.53;23.80;;;;;;;;;;5011035;28;20054;-67
2022/05/17 02:24:10;;;;;;;49.00;22.73;;;;;;;;;;5006588;28;20027;-68
2022/05/17 02:26:35;;;;;;;72.55;26.33;;;;;;;;;;4990964;28;20490;-66
2022/05/17 02:29:03;;;;;;;61.10;23.83;;;;;;;;;;5006314;28;20099;-68
2022/05/17 02:31:29;;;;;;;54.83;23.13;;;;;;;;;;5011733;28;20026;-68
2022/05/17 02:33:54;;;;;;;53.70;23.35;;;;;;;;;;5008154;28;20052;-67
2022/05/17 02:36:20;;;;;;;53.90;22.55;;;;;;;;;;5010578;28;20046;-67
2022/05/17 02:38:45;;;;;;;50.60;22.63;;;;;;;;;;5006943;28;20580;-67
2022/05/17 02:41:10;;;;;;;54.33;22.85;;;;;;;;;;5011565;28;20041;-67
2022/05/17 02:43:36;;;;;;;52.50;21.95;;;;;;;;;;5006173;28;20063;-67
2022/05/17 02:46:01;;;;;;;53.92;22.15;;;;;;;;;;5007947;28;20034;-67
2022/05/17 02:48:26;;;;;;;47.13;20.80;;;;;;;;;;5011136;28;20125;-68
2022/05/17 02:50:51;;;;;;;43.08;21.65;;;;;;;;;;5006550;28;20041;-67
2022/05/17 02:53:17;;;;;;;51.22;22.20;;;;;;;;;;5011100;28;20036;-68
2022/05/17 02:55:42;;;;;;;52.58;21.58;;;;;;;;;;5010969;28;20037;-69
2022/05/17 02:58:07;;;;;;;51.60;22.77;;;;;;;;;;5013151;28;20034;-68
2022/05/17 03:00:33;;;;;;;49.67;22.17;;;;;;;;;;5013513;28;20036;-67
2022/05/17 03:02:58;;;;;;;49.92;21.65;;;;;;;;;;5011916;28;20701;-67
2022/05/17 03:05:23;;;;;;;49.78;22.05;;;;;;;;;;5009700;28;20044;-67
2022/05/17 03:07:49;;;;;;;49.92;22.55;;;;;;;;;;5007503;28;20105;-67
2022/05/17 03:10:14;;;;;;;52.88;22.65;;;;;;;;;;5009478;28;20037;-67
2022/05/17 03:12:40;;;;;;;49.53;22.92;;;;;;;;;;5013749;28;20026;-67
2022/05/17 03:15:06;;;;;;;46.17;21.27;;;;;;;;;;5013159;28;20030;-69
2022/05/17 03:17:31;;;;;;;47.95;20.95;;;;;;;;;;5009844;28;20084;-68
2022/05/17 03:19:57;;;;;;;39.65;20.15;;;;;;;;;;5011008;28;20386;-68
2022/05/17 03:22:23;;;;;;;43.63;20.08;;;;;;;;;;5010069;28;20471;-70
2022/05/17 03:24:48;;;;;;;36.95;19.75;;;;;;;;;;5011945;28;20076;-69
2022/05/17 03:27:16;;;;;;;42.35;20.00;;;;;;;;;;5011875;28;20120;-69
2022/05/17 03:29:41;;;;;;;46.15;20.65;;;;;;;;;;5013863;28;20029;-67
2022/05/17 03:32:07;;;;;;;64.15;23.42;;;;;;;;;;5013014;28;20080;-68
2022/05/17 03:34:32;;;;;;;53.53;22.05;;;;;;;;;;5013039;28;20113;-67
2022/05/17 03:36:58;;;;;;;48.97;21.42;;;;;;;;;;5009623;28;20037;-67
2022/05/17 03:39:23;;;;;;;58.78;23.38;;;;;;;;;;5013250;28;20061;-67
2022/05/17 03:41:48;;;;;;;55.88;22.85;;;;;;;;;;5009196;28;20479;-67
2022/05/17 03:44:13;;;;;;;59.10;23.65;;;;;;;;;;5011608;28;20130;-67
2022/05/17 03:46:39;;;;;;;53.47;22.85;;;;;;;;;;5012228;28;20030;-67
2022/05/17 03:49:04;;;;;;;55.15;23.20;;;;;;;;;;5012250;28;20116;-67
2022/05/17 03:51:29;;;;;;;60.78;24.73;;;;;;;;;;5009663;28;20022;-67
2022/05/17 03:53:54;;;;;;;62.00;24.45;;;;;;;;;;5011204;28;20467;-67
2022/05/17 03:56:20;;;;;;;67.63;24.55;;;;;;;;;;5012348;28;20040;-67
2022/05/17 03:58:45;;;;;;;64.95;25.00;;;;;;;;;;5012060;28;20034;-66
2022/05/17 04:01:12;;;;;;;61.42;25.17;;;;;;;;;;5009527;28;20034;-67
2022/05/17 04:03:37;;;;;;;59.53;24.85;;;;;;;;;;5007255;28;20042;-66
2022/05/17 04:06:03;;;;;;;58.80;24.02;;;;;;;;;;5009247;28;20022;-67
2022/05/17 04:08:28;;;;;;;50.60;23.67;;;;;;;;;;5012900;28;20145;-67
2022/05/17 04:10:54;;;;;;;55.15;23.60;;;;;;;;;;5010177;28;20048;-66
2022/05/17 04:13:19;;;;;;;47.88;23.30;;;;;;;;;;5011225;28;20113;-67
2022/05/17 04:15:45;;;;;;;53.15;24.00;;;;;;;;;;5010682;28;20046;-66
2022/05/17 04:18:10;;;;;;;49.35;23.45;;;;;;;;;;5013687;28;20108;-68
2022/05/17 04:20:35;;;;;;;49.22;23.70;;;;;;;;;;5012130;28;20061;-68
2022/05/17 04:23:01;;;;;;;47.92;23.35;;;;;;;;;;5008204;28;20280;-67
2022/05/17 04:25:26;;;;;;;57.33;25.00;;;;;;;;;;5010474;28;20037;-66
2022/05/17 04:27:52;;;;;;;55.05;23.83;;;;;;;;;;5010409;28;20156;-66
2022/05/17 04:30:18;;;;;;;41.25;22.10;;;;;;;;;;5013342;28;20115;-66
2022/05/17 04:32:43;;;;;;;48.83;23.15;;;;;;;;;;5009020;28;20436;-68
2022/05/17 04:35:09;;;;;;;46.80;23.52;;;;;;;;;;5010313;28;20076;-68
2022/05/17 04:37:36;;;;;;;45.85;23.73;;;;;;;;;;5012843;28;20113;-68
2022/05/17 04:40:02;;;;;;;43.40;22.73;;;;;;;;;;5011627;28;20045;-68
2022/05/17 04:42:27;;;;;;;40.53;23.13;;;;;;;;;;5004952;28;20037;-68
2022/05/17 04:44:52;;;;;;;43.70;22.08;;;;;;;;;;5011756;28;20034;-66
2022/05/17 04:47:18;;;;;;;44.00;22.77;;;;;;;;;;5011682;28;20034;-68
2022/05/17 04:49:43;;;;;;;40.92;21.35;;;;;;;;;;5010580;28;20041;-68
2022/05/17 04:52:08;;;;;;;40.88;22.55;;;;;;;;;;5009635;28;20037;-68
2022/05/17 04:54:34;;;;;;;42.15;22.15;;;;;;;;;;5011510;28;20108;-68
2022/05/17 04:56:59;;;;;;;40.22;22.65;;;;;;;;;;5012171;28;20034;-68
2022/05/17 04:59:24;;;;;;;44.78;22.17;;;;;;;;;;5012345;28;20386;-68
2022/05/17 05:01:50;;;;;;;44.88;22.58;;;;;;;;;;5008216;28;20037;-67
2022/05/17 05:04:17;;;;;;;37.95;21.40;;;;;;;;;;5011677;28;20124;-67
2022/05/17 05:06:42;;;;;;;35.42;20.92;;;;;;;;;;5010985;28;20065;-67
2022/05/17 05:09:07;;;;;;;40.72;21.60;;;;;;;;;;5006278;28;20797;-67
2022/05/17 05:11:34;;;;;;;43.05;22.50;;;;;;;;;;5009297;28;20030;-68
2022/05/17 05:13:59;;;;;;;37.40;21.85;;;;;;;;;;5009648;28;20040;-67
2022/05/17 05:16:24;;;;;;;37.28;22.08;;;;;;;;;;5007101;28;20045;-67
2022/05/17 05:18:50;;;;;;;36.10;22.15;;;;;;;;;;5020707;28;20095;-68
2022/05/17 05:21:16;;;;;;;39.58;21.05;;;;;;;;;;4998932;28;20034;-67
2022/05/17 05:23:42;;;;;;;35.30;20.13;;;;;;;;;;4993824;28;20034;-66
2022/05/17 05:26:08;;;;;;;35.33;22.02;;;;;;;;;;5002495;28;20097;-68
2022/05/17 05:28:34;;;;;;;34.78;21.60;;;;;;;;;;5008047;28;20109;-66
2022/05/17 05:31:00;;;;;;;31.33;20.70;;;;;;;;;;5002496;28;20105;-69
2022/05/17 05:33:26;;;;;;;35.50;19.92;;;;;;;;;;4996923;28;20383;-67
2022/05/17 05:35:51;;;;;;;32.03;19.95;;;;;;;;;;5009512;28;20040;-68
2022/05/17 05:38:16;;;;;;;39.25;21.13;;;;;;;;;;5011293;28;20053;-69
2022/05/17 05:40:42;;;;;;;34.72;22.13;;;;;;;;;;5010845;28;20082;-66
2022/05/17 05:43:07;;;;;;;37.92;21.15;;;;;;;;;;5007568;28;20045;-65
2022/05/17 05:45:33;;;;;;;39.35;21.05;;;;;;;;;;5007576;28;20092;-66
2022/05/17 05:47:59;;;;;;;28.92;19.23;;;;;;;;;;4991547;28;20033;-66
2022/05/17 05:50:24;;;;;;;28.45;18.55;;;;;;;;;;5005872;28;20121;-67
2022/05/17 05:52:49;;;;;;;29.77;19.35;;;;;;;;;;5010141;28;20533;-63
2022/05/17 05:55:19;;;;;;;33.35;19.42;;;;;;;;;;5012153;28;20030;-66
2022/05/17 05:57:46;;;;;;;32.50;18.50;;;;;;;;;;5011685;28;20037;-65
2022/05/17 06:00:11;;;;;;;29.33;18.45;;;;;;;;;;5010869;28;20334;-64
2022/05/17 06:02:37;;;;;;;28.73;17.58;;;;;;;;;;5007130;28;20124;-64
2022/05/17 06:05:02;;;;;;;29.88;17.52;;;;;;;;;;5006628;28;20342;-66
2022/05/17 06:07:27;;;;;;;25.48;16.58;;;;;;;;;;4992532;28;20042;-66
2022/05/17 06:09:53;;;;;;;30.08;17.55;;;;;;;;;;4997979;28;20022;-66
2022/05/17 06:12:18;;;;;;;26.63;16.92;;;;;;;;;;5011014;28;20037;-68
2022/05/17 06:14:43;;;;;;;28.67;16.42;;;;;;;;;;4999785;28;20077;-63
2022/05/17 06:17:09;;;;;;;24.98;15.82;;;;;;;;;;4995095;28;20052;-71
2022/05/17 06:19:34;;;;;;;22.38;15.40;;;;;;;;;;4993576;28;20049;-69
2022/05/17 06:21:59;;;;;;;25.13;15.60;;;;;;;;;;4991206;28;20037;-69
2022/05/17 06:24:25;;;;;;;26.10;17.08;;;;;;;;;;5008533;28;20045;-68
2022/05/17 06:26:50;;;;;;;26.67;17.38;;;;;;;;;;4997397;28;20077;-65
2022/05/17 06:29:16;;;;;;;26.25;17.48;;;;;;;;;;4994177;28;20084;-70
2022/05/17 06:31:42;;;;;;;26.63;16.45;;;;;;;;;;4996980;28;20031;-68
2022/05/17 06:34:07;;;;;;;23.33;15.68;;;;;;;;;;4995103;28;20088;-70
2022/05/17 06:36:32;;;;;;;21.30;15.63;;;;;;;;;;5004119;28;20471;-68
2022/05/17 06:38:58;;;;;;;24.23;15.93;;;;;;;;;;4994528;28;20035;-68
2022/05/17 06:41:23;;;;;;;25.35;16.83;;;;;;;;;;5003491;28;20037;-66
2022/05/17 06:43:49;;;;;;;26.20;16.02;;;;;;;;;;5015183;28;20050;-67
2022/05/17 06:46:14;;;;;;;26.10;14.88;;;;;;;;;;5003641;28;20470;-70
2022/05/17 06:48:39;;;;;;;22.40;13.68;;;;;;;;;;5000958;28;20033;-68
2022/05/17 06:51:06;;;;;;;19.48;12.43;;;;;;;;;;5013027;28;20038;-69
2022/05/17 06:53:31;;;;;;;22.63;12.38;;;;;;;;;;5014693;28;20085;-70
2022/05/17 06:55:57;;;;;;;15.60;11.35;;;;;;;;;;5012154;28;20112;-68
2022/05/17 06:58:23;;;;;;;18.50;10.25;;;;;;;;;;5010008;28;20034;-69
2022/05/17 07:00:48;;;;;;;15.75;9.52;;;;;;;;;;4995123;28;20036;-63
2022/05/17 07:03:14;;;;;;;15.63;9.23;;;;;;;;;;5004214;28;20492;-69
2022/05/17 07:05:39;;;;;;;16.40;9.38;;;;;;;;;;5009933;28;20054;-68
2022/05/17 07:08:05;;;;;;;15.98;9.25;;;;;;;;;;5002698;28;20461;-69
2022/05/17 07:13:15;;;;;;;15.88;9.88;;;;;;;;;;5014269;28;20041;-69
2022/05/17 07:15:47;;;;;;;20.05;9.75;;;;;;;;;;5012223;28;20057;-70
2022/05/17 07:18:14;;;;;;;18.15;9.98;;;;;;;;;;5013720;28;20679;-68
2022/05/17 07:20:40;;;;;;;14.63;9.63;;;;;;;;;;5011287;28;20053;-69
2022/05/17 07:23:06;;;;;;;21.33;9.93;;;;;;;;;;5013606;28;20088;-70
2022/05/17 07:25:32;;;;;;;16.45;9.23;;;;;;;;;;5012372;28;20029;-68
2022/05/17 07:27:58;;;;;;;23.90;9.13;;;;;;;;;;5012636;28;20083;-69
2022/05/17 07:30:24;;;;;;;21.33;9.48;;;;;;;;;;5004679;28;20034;-65
2022/05/17 07:32:49;;;;;;;17.45;8.77;;;;;;;;;;4994368;28;20038;-65
2022/05/17 07:35:15;;;;;;;19.17;9.38;;;;;;;;;;4998759;28;20030;-68
2022/05/17 07:37:40;;;;;;;15.70;8.77;;;;;;;;;;5014160;28;20029;-68
2022/05/17 07:40:06;;;;;;;18.27;8.98;;;;;;;;;;5007559;28;20033;-68
2022/05/17 07:42:32;;;;;;;16.08;9.05;;;;;;;;;;5013861;28;20503;-67
2022/05/17 07:44:58;;;;;;;16.88;9.45;;;;;;;;;;5009528;28;20105;-68
2022/05/17 07:47:23;;;;;;;16.10;8.43;;;;;;;;;;4994349;28;20376;-67
2022/05/17 07:49:49;;;;;;;13.68;7.72;;;;;;;;;;4995286;28;20699;-65
2022/05/17 07:52:14;;;;;;;13.65;8.02;;;;;;;;;;5007135;28;20048;-65
2022/05/17 07:54:41;;;;;;;20.25;8.40;;;;;;;;;;5012583;28;20061;-65
2022/05/17 07:57:07;;;;;;;13.82;7.97;;;;;;;;;;5012835;28;20030;-70
2022/05/17 07:59:33;;;;;;;18.52;9.00;;;;;;;;;;4995773;28;20579;-69
2022/05/17 08:01:59;;;;;;;16.48;9.45;;;;;;;;;;4995291;28;20038;-63
2022/05/17 08:04:25;;;;;;;17.42;9.52;;;;;;;;;;5007685;28;20117;-64
2022/05/17 08:06:51;;;;;;;15.45;8.82;;;;;;;;;;5011583;28;20030;-63
2022/05/17 08:09:17;;;;;;;17.13;9.38;;;;;;;;;;5011096;28;20037;-63
2022/05/17 08:11:43;;;;;;;16.83;9.60;;;;;;;;;;5027285;28;20376;-63
2022/05/17 08:14:08;;;;;;;12.38;7.97;;;;;;;;;;5009553;28;20088;-64
2022/05/17 08:16:34;;;;;;;16.13;8.07;;;;;;;;;;5010296;28;20095;-66
2022/05/17 08:18:59;;;;;;;14.27;7.82;;;;;;;;;;5000665;28;20045;-66
2022/05/17 08:21:25;;;;;;;13.45;7.53;;;;;;;;;;5006564;28;20037;-68
2022/05/17 08:23:50;;;;;;;19.25;8.60;;;;;;;;;;4993964;28;20442;-66
2022/05/17 08:28:59;;;;;;;16.23;8.43;;;;;;;;;;5012326;28;20048;-65
2022/05/17 08:31:25;;;;;;;15.77;8.13;;;;;;;;;;5013860;28;20124;-65
2022/05/17 08:33:50;;;;;;;17.48;8.88;;;;;;;;;;5013369;28;20052;-69
2022/05/17 08:36:17;;;;;;;17.40;8.43;;;;;;;;;;5004135;28;20042;-64
2022/05/17 08:38:48;;;;;;;16.17;8.02;;;;;;;;;;4993587;28;20438;-67
2022/05/17 08:41:26;;;;;;;11.93;7.30;;;;;;;;;;5007957;28;20058;-66
2022/05/17 08:43:59;;;;;;;12.93;6.60;;;;;;;;;;4993168;28;20137;-67
2022/05/17 08:46:59;;;;;;;14.13;6.82;;;;;;;;;;5006224;28;20042;-68
2022/05/17 08:49:27;;;;;;;14.43;7.90;;;;;;;;;;5028970;28;20026;-67
2022/05/17 08:51:59;;;;;;;12.27;6.43;;;;;;;;;;5013618;28;20128;-66
2022/05/17 08:54:37;;;;;;;11.82;6.18;;;;;;;;;;5012714;28;20034;-67
2022/05/17 08:57:20;;;;;;;12.25;7.13;;;;;;;;;;5009248;28;20501;-66
2022/05/17 08:59:47;;;;;;;14.90;7.57;;;;;;;;;;4994390;28;20045;-67
2022/05/17 09:02:44;;;;;;;17.52;7.50;;;;;;;;;;5003940;28;20145;-67
2022/05/17 09:05:28;;;;;;;19.48;7.82;;;;;;;;;;5010266;28;20506;-65
2022/05/17 09:07:58;;;;;;;14.60;8.05;;;;;;;;;;5012219;28;20380;-66
2022/05/17 09:10:38;;;;;;;16.92;7.90;;;;;;;;;;5001115;28;20049;-64
2022/05/17 09:13:16;;;;;;;17.10;7.60;;;;;;;;;;4992251;28;20100;-63
2022/05/17 09:15:44;;;;;;;18.35;7.45;;;;;;;;;;4993853;28;20457;-65
2022/05/17 09:18:14;;;;;;;12.32;7.07;;;;;;;;;;4991785;28;20368;-66
2022/05/17 09:20:40;;;;;;;14.95;7.25;;;;;;;;;;4992866;28;20038;-67
2022/05/17 09:23:06;;;;;;;14.93;6.93;;;;;;;;;;4992048;28;20045;-67
2022/05/17 09:26:05;;;;;;;11.40;6.47;;;;;;;;;;5000547;28;20475;-66
2022/05/17 09:28:53;;;;;;;17.55;7.10;;;;;;;;;;4992843;28;20030;-63
2022/05/17 09:31:21;;;;;;;14.13;6.25;;;;;;;;;;4985474;28;20046;-66
2022/05/17 09:33:47;;;;;;;13.00;5.93;;;;;;;;;;4993064;28;20399;-66
2022/05/17 09:36:18;;;;;;;13.55;6.32;;;;;;;;;;4992644;28;20450;-66
2022/05/17 09:38:47;;;;;;;14.13;6.07;;;;;;;;;;5011806;28;20022;-67
2022/05/17 09:41:16;;;;;;;13.48;6.18;;;;;;;;;;5023946;28;20533;-63
2022/05/17 09:43:50;;;;;;;12.80;6.50;;;;;;;;;;5007148;28;20046;-66
2022/05/17 09:46:18;;;;;;;9.23;5.80;;;;;;;;;;4992176;28;20097;-67
2022/05/17 09:54:38;;;;;;;12.37;5.27;;;;;;;;;;4992601;28;20057;-64
2022/05/17 09:57:23;;;;;;;12.95;5.57;;;;;;;;;;4991755;28;20037;-65
2022/05/17 09:59:53;;;;;;;12.05;6.00;;;;;;;;;;4992740;28;20034;-64
2022/05/17 10:02:34;;;;;;;13.55;5.60;;;;;;;;;;5008584;28;20120;-66
2022/05/17 10:05:09;;;;;;;13.50;6.07;;;;;;;;;;5007123;28;20027;-62
2022/05/17 10:07:35;;;;;;;13.60;6.20;;;;;;;;;;4992551;28;20065;-66
2022/05/17 10:10:09;;;;;;;14.57;6.35;;;;;;;;;;4992424;28;20039;-67
2022/05/17 10:12:37;;;;;;;10.88;6.25;;;;;;;;;;4992419;28;20034;-67
2022/05/17 10:15:08;;;;;;;10.55;6.00;;;;;;;;;;4991501;28;20046;-67
2022/05/17 10:17:37;;;;;;;13.68;6.30;;;;;;;;;;4996571;28;20100;-68
2022/05/17 10:20:18;;;;;;;13.48;6.25;;;;;;;;;;5004814;28;20097;-65
2022/05/17 10:22:57;;;;;;;13.40;6.53;;;;;;;;;;4992234;28;20105;-67
2022/05/17 10:25:29;;;;;;;12.82;6.70;;;;;;;;;;4992170;28;20112;-63
2022/05/17 10:28:00;;;;;;;12.60;6.15;;;;;;;;;;4992173;28;20363;-63
2022/05/17 10:30:39;;;;;;;15.63;6.95;;;;;;;;;;5006370;28;20457;-65
2022/05/17 10:33:10;;;;;;;14.68;6.97;;;;;;;;;;5010811;28;20041;-66
2022/05/17 10:35:40;;;;;;;13.52;6.72;;;;;;;;;;4999848;28;20034;-64
2022/05/17 10:38:10;;;;;;;12.38;6.47;;;;;;;;;;4991516;28;20045;-64
2022/05/17 10:40:43;;;;;;;13.27;6.43;;;;;;;;;;4992630;28;20162;-65
2022/05/17 10:43:15;;;;;;;14.27;6.30;;;;;;;;;;4991098;28;20137;-65
2022/05/17 10:45:46;;;;;;;11.75;5.97;;;;;;;;;;4992572;28;20027;-65
2022/05/17 10:48:38;;;;;;;13.45;6.55;;;;;;;;;;4991283;28;20038;-66
2022/05/17 10:51:16;;;;;;;12.77;7.50;;;;;;;;;;4994635;28;20042;-67
2022/05/17 10:53:57;;;;;;;16.33;7.15;;;;;;;;;;5011572;28;20121;-67
2022/05/17 10:56:31;;;;;;;12.40;6.90;;;;;;;;;;5011495;28;20026;-67
2022/05/17 10:59:08;;;;;;;11.82;6.22;;;;;;;;;;5008763;28;20092;-65
2022/05/17 11:01:55;;;;;;;10.20;6.55;;;;;;;;;;5010129;28;20030;-66
2022/05/17 11:05:18;;;;;;;12.32;6.05;;;;;;;;;;5010407;28;20034;-66
2022/05/17 11:07:46;;;;;;;13.20;6.50;;;;;;;;;;5006086;28;20129;-62
2022/05/17 11:10:30;;;;;;;13.60;6.38;;;;;;;;;;5006095;28;20569;-64
2022/05/17 11:13:09;;;;;;;12.23;6.68;;;;;;;;;;5009321;28;20493;-64
2022/05/17 11:15:38;;;;;;;12.32;6.40;;;;;;;;;;5013744;28;20033;-64
2022/05/17 11:18:17;;;;;;;13.38;6.90;;;;;;;;;;5010705;28;20033;-64
2022/05/17 11:20:55;;;;;;;13.70;7.30;;;;;;;;;;5014898;28;20109;-61
2022/05/17 11:23:56;;;;;;;11.43;6.55;;;;;;;;;;5009927;28;20034;-63
2022/05/17 11:26:48;;;;;;;11.45;6.35;;;;;;;;;;5014539;28;20498;-64
2022/05/17 11:29:50;;;;;;;11.48;5.90;;;;;;;;;;4988225;28;20077;-63
2022/05/17 11:32:28;;;;;;;9.95;5.55;;;;;;;;;;4994777;28;20080;-64
2022/05/17 11:34:57;;;;;;;13.82;6.20;;;;;;;;;;5013020;28;20060;-64
2022/05/17 11:37:32;;;;;;;12.43;5.90;;;;;;;;;;5011887;28;20065;-64
2022/05/17 11:40:01;;;;;;;9.30;5.10;;;;;;;;;;4994351;28;20038;-62
2022/05/17 11:45:51;;;;;;;12.20;5.32;;;;;;;;;;5014082;28;20036;-65
2022/05/17 11:48:22;;;;;;;9.98;4.97;;;;;;;;;;5008364;28;20034;-66
2022/05/17 11:50:59;;;;;;;10.93;4.80;;;;;;;;;;4994318;28;20070;-64
2022/05/17 11:53:24;;;;;;;10.40;4.85;;;;;;;;;;4999568;28;20759;-61
2022/05/17 11:56:11;;;;;;;13.10;5.13;;;;;;;;;;5004583;28;20041;-64
2022/05/17 11:58:37;;;;;;;14.88;5.40;;;;;;;;;;5011651;28;20382;-63
2022/05/17 12:01:02;;;;;;;11.38;5.13;;;;;;;;;;5004421;28;20030;-65
2022/05/17 12:03:53;;;;;;;9.95;4.82;;;;;;;;;;5008122;28;20060;-65
2022/05/17 12:06:49;;;;;;;12.00;4.93;;;;;;;;;;5012622;28;20034;-66
2022/05/17 12:09:23;;;;;;;13.90;5.07;;;;;;;;;;5012934;28;20099;-64
2022/05/17 12:12:17;;;;;;;10.95;4.00;;;;;;;;;;5010848;28;20466;-67
2022/05/17 12:15:10;;;;;;;12.82;4.30;;;;;;;;;;5010644;28;20044;-65
2022/05/17 12:17:54;;;;;;;9.07;3.88;;;;;;;;;;5011758;28;20041;-63
2022/05/17 12:20:47;;;;;;;7.03;2.83;;;;;;;;;;5012046;28;20521;-66
2022/05/17 12:23:24;;;;;;;6.90;2.85;;;;;;;;;;4998269;28;20033;-68
2022/05/17 12:25:58;;;;;;;7.15;2.95;;;;;;;;;;5010796;28;20394;-65
2022/05/17 12:28:33;;;;;;;7.88;3.20;;;;;;;;;;5012206;28;20076;-66
2022/05/17 12:31:02;;;;;;;9.35;3.65;;;;;;;;;;5006227;28;20034;-64
2022/05/17 12:33:55;;;;;;;7.47;3.40;;;;;;;;;;4998876;28;20040;-67
2022/05/17 12:36:28;;;;;;;10.35;3.55;;;;;;;;;;5008310;28;20052;-64
2022/05/17 12:44:33;;;;;;;10.15;3.50;;;;;;;;;;5012889;28;20337;-65
2022/05/17 12:46:58;;;;;;;10.05;4.60;;;;;;;;;;5008841;28;20041;-65
2022/05/17 12:49:31;;;;;;;10.02;3.88;;;;;;;;;;5012278;28;20390;-67
2022/05/17 12:52:10;;;;;;;9.48;4.00;;;;;;;;;;5010781;28;20030;-66
2022/05/17 12:54:36;;;;;;;10.43;3.88;;;;;;;;;;5011577;28;20088;-66
2022/05/17 12:57:15;;;;;;;9.75;4.03;;;;;;;;;;5012070;28;20120;-67
2022/05/17 12:59:40;;;;;;;12.88;4.65;;;;;;;;;;5009200;28;20037;-69
2022/05/17 13:02:06;;;;;;;10.02;4.10;;;;;;;;;;4997842;28;20041;-69
2022/05/17 13:04:36;;;;;;;10.27;4.22;;;;;;;;;;5006787;28;20390;-68
2022/05/17 13:07:13;;;;;;;11.38;4.28;;;;;;;;;;5011878;28;20379;-70
2022/05/17 13:10:09;;;;;;;14.38;5.07;;;;;;;;;;5009470;28;20100;-68
2022/05/17 13:12:42;;;;;;;9.52;4.50;;;;;;;;;;5011154;28;20037;-68
2022/05/17 13:15:09;;;;;;;15.05;5.22;;;;;;;;;;5010139;28;20562;-68
2022/05/17 13:17:38;;;;;;;12.15;4.88;;;;;;;;;;5012465;28;20467;-67
2022/05/17 13:20:24;;;;;;;9.90;4.83;;;;;;;;;;5007669;28;20056;-65
2022/05/17 13:22:55;;;;;;;12.18;5.18;;;;;;;;;;4992953;28;20109;-68
2022/05/17 13:25:26;;;;;;;16.33;5.50;;;;;;;;;;4994708;28;20068;-69
2022/05/17 13:27:54;;;;;;;10.35;4.85;;;;;;;;;;5012563;28;20052;-68
2022/05/17 13:30:31;;;;;;;11.13;4.47;;;;;;;;;;5004168;28;20060;-68
2022/05/17 13:32:58;;;;;;;14.60;4.80;;;;;;;;;;5000860;28;20038;-66
2022/05/17 13:35:33;;;;;;;10.82;4.50;;;;;;;;;;4999011;28;20489;-68
2022/05/17 13:38:21;;;;;;;10.43;4.78;;;;;;;;;;4993154;28;20053;-66
2022/05/17 13:40:48;;;;;;;11.88;4.70;;;;;;;;;;4993644;28;20112;-68
2022/05/17 13:43:25;;;;;;;10.25;4.18;;;;;;;;;;5009228;28;20045;-68
2022/05/17 13:46:06;;;;;;;9.88;3.95;;;;;;;;;;5011949;28;20037;-66
2022/05/17 13:48:32;;;;;;;;;;;;;;;;;;5012523;28;20045;-69
2022/05/17 13:51:00;;;;;;;8.07;3.80;;;;;;;;;;5005932;28;19988;-63
2022/05/17 13:53:29;;;;;;;8.55;3.70;;;;;;;;;;5004784;28;20032;-65
2022/05/17 13:55:55;;;;;;;8.20;3.70;;;;;;;;;;5001220;28;20027;-64
2022/05/17 13:58:23;;;;;;;8.43;3.42;;;;;;;;;;5007887;28;20038;-66
2022/05/17 14:01:07;;;;;;;11.43;4.28;;;;;;;;;;5007298;28;20077;-66
2022/05/17 14:03:32;;;;;;;11.48;4.00;;;;;;;;;;5009898;28;20045;-67
2022/05/17 14:06:10;;;;;;;8.02;3.90;;;;;;;;;;5009174;28;20424;-66
2022/05/17 14:11:50;;;;;;;11.73;4.53;;;;;;;;;;5011766;28;20068;-67
2022/05/17 14:14:17;;;;;;;9.32;4.18;;;;;;;;;;5008018;28;20493;-68
2022/05/17 14:17:01;;;;;;;8.13;4.15;;;;;;;;;;4993073;28;20074;-67
2022/05/17 14:19:30;;;;;;;12.88;4.28;;;;;;;;;;5006538;28;20041;-64
2022/05/17 14:21:59;;;;;;;9.43;4.20;;;;;;;;;;5001708;28;20058;-63
2022/05/17 14:24:25;;;;;;;10.75;4.38;;;;;;;;;;5009458;28;20108;-67
2022/05/17 14:26:56;;;;;;;8.60;4.10;;;;;;;;;;5005658;28;20121;-68
2022/05/17 14:29:25;;;;;;;9.13;4.30;;;;;;;;;;5004959;28;20061;-67
2022/05/17 14:31:52;;;;;;;8.07;4.22;;;;;;;;;;5005792;28;20029;-64
2022/05/17 14:34:22;;;;;;;10.35;4.70;;;;;;;;;;4991826;28;20391;-67
2022/05/17 14:36:47;;;;;;;8.35;4.18;;;;;;;;;;4992509;28;20034;-66
2022/05/17 14:39:14;;;;;;;8.63;4.00;;;;;;;;;;4991657;28;20166;-66
2022/05/17 14:41:44;;;;;;;8.77;3.80;;;;;;;;;;4992672;28;20037;-67
2022/05/17 14:44:11;;;;;;;8.38;3.90;;;;;;;;;;5000443;28;20042;-66
2022/05/17 14:46:38;;;;;;;7.03;3.78;;;;;;;;;;5011745;28;20038;-67
2022/05/17 14:49:44;;;;;;;9.05;4.03;;;;;;;;;;5009687;28;20034;-67
2022/05/17 14:52:09;;;;;;;8.57;3.28;;;;;;;;;;5012212;28;20038;-67
2022/05/17 14:54:36;;;;;;;8.18;3.20;;;;;;;;;;5015387;28;20034;-68
2022/05/17 14:57:02;;;;;;;9.02;3.40;;;;;;;;;;5014815;28;20045;-66
2022/05/17 14:59:27;;;;;;;9.77;3.47;;;;;;;;;;5015389;28;20026;-67
2022/05/17 15:01:53;;;;;;;9.23;3.30;;;;;;;;;;5014190;28;20344;-68
2022/05/17 15:04:23;;;;;;;6.85;3.03;;;;;;;;;;5014334;28;20034;-67
2022/05/17 15:06:55;;;;;;;7.68;2.95;;;;;;;;;;5014106;28;20058;-68
2022/05/17 15:09:29;;;;;;;8.98;3.08;;;;;;;;;;5013967;28;20376;-67